sensor_id;sensor_type;location;lat;lon;timestamp;temperature;humidity
42617;DHT22;28250;52.320;0.360;2023-04-24T00:00:23;7.50;99.90
42617;DHT22;28250;52.320;0.360;2023-04-24T00:02:49;7.50;99.90
42617;DHT22;28250;52.320;0.360;2023-04-24T00:05:16;7.50;99.90
42617;DHT22;28250;52.320;0.360;2023-04-24T00:07:44;7.50;99.90
42617;DHT22;28250;52.320;0.360;2023-04-24T00:10:10;7.50;99.90
42617;DHT22;28250;52.320;0.360;2023-04-24T00:12:37;7.40;99.90
42617;DHT22;28250;52.320;0.360;2023-04-24T00:15:03;7.40;99.90
42617;DHT22;28250;52.320;0.360;2023-04-24T00:18:04;7.30;99.90
42617;DHT22;28250;52.320;0.360;2023-04-24T00:20:30;7.20;99.90
42617;DHT22;28250;52.320;0.360;2023-04-24T00:22:58;7.10;99.90
42617;DHT22;28250;52.320;0.360;2023-04-24T00:25:24;7.10;99.90
42617;DHT22;28250;52.320;0.360;2023-04-24T00:27:50;7.00;99.90
42617;DHT22;28250;52.320;0.360;2023-04-24T00:30:16;7.10;99.90
42617;DHT22;28250;52.320;0.360;2023-04-24T00:32:42;7.00;99.90
42617;DHT22;28250;52.320;0.360;2023-04-24T00:35:08;7.00;99.90
42617;DHT22;28250;52.320;0.360;2023-04-24T00:37:35;7.00;99.90
42617;DHT22;28250;52.320;0.360;2023-04-24T00:40:02;6.90;99.90
42617;DHT22;28250;52.320;0.360;2023-04-24T00:42:29;7.00;99.90
42617;DHT22;28250;52.320;0.360;2023-04-24T00:44:56;6.90;99.90
42617;DHT22;28250;52.320;0.360;2023-04-24T00:47:22;6.90;99.90
42617;DHT22;28250;52.320;0.360;2023-04-24T00:49:48;6.90;99.90
42617;DHT22;28250;52.320;0.360;2023-04-24T00:52:14;6.90;99.90
42617;DHT22;28250;52.320;0.360;2023-04-24T00:54:46;6.90;99.90
42617;DHT22;28250;52.320;0.360;2023-04-24T00:57:13;6.90;99.90
42617;DHT22;28250;52.320;0.360;2023-04-24T00:59:41;6.80;99.90
42617;DHT22;28250;52.320;0.360;2023-04-24T01:02:09;6.80;99.90
42617;DHT22;28250;52.320;0.360;2023-04-24T01:04:36;6.70;99.90
42617;DHT22;28250;52.320;0.360;2023-04-24T01:07:04;6.80;99.90
42617;DHT22;28250;52.320;0.360;2023-04-24T01:09:39;6.70;99.90
42617;DHT22;28250;52.320;0.360;2023-04-24T01:12:07;6.70;99.90
42617;DHT22;28250;52.320;0.360;2023-04-24T01:14:33;6.70;99.90
42617;DHT22;28250;52.320;0.360;2023-04-24T01:16:59;6.80;99.90
42617;DHT22;28250;52.320;0.360;2023-04-24T01:19:27;6.70;99.90
42617;DHT22;28250;52.320;0.360;2023-04-24T01:21:54;6.80;99.90
42617;DHT22;28250;52.320;0.360;2023-04-24T01:24:24;6.80;99.90
42617;DHT22;28250;52.320;0.360;2023-04-24T01:26:50;6.80;99.90
42617;DHT22;28250;52.320;0.360;2023-04-24T01:29:18;6.70;99.90
42617;DHT22;28250;52.320;0.360;2023-04-24T01:31:44;6.70;99.90
42617;DHT22;28250;52.320;0.360;2023-04-24T01:34:11;6.70;99.90
42617;DHT22;28250;52.320;0.360;2023-04-24T01:36:37;6.70;99.90
42617;DHT22;28250;52.320;0.360;2023-04-24T01:39:04;6.70;99.90
42617;DHT22;28250;52.320;0.360;2023-04-24T01:41:32;6.80;99.90
42617;DHT22;28250;52.320;0.360;2023-04-24T01:43:58;6.70;99.90
42617;DHT22;28250;52.320;0.360;2023-04-24T01:46:24;6.60;99.90
42617;DHT22;28250;52.320;0.360;2023-04-24T01:48:51;6.60;99.90
42617;DHT22;28250;52.320;0.360;2023-04-24T01:51:19;6.60;99.90
42617;DHT22;28250;52.320;0.360;2023-04-24T01:53:45;6.60;99.90
42617;DHT22;28250;52.320;0.360;2023-04-24T01:56:11;6.60;99.90
42617;DHT22;28250;52.320;0.360;2023-04-24T01:58:37;6.50;99.90
42617;DHT22;28250;52.320;0.360;2023-04-24T02:01:03;6.50;99.90
42617;DHT22;28250;52.320;0.360;2023-04-24T02:03:30;6.40;99.90
42617;DHT22;28250;52.320;0.360;2023-04-24T02:05:58;6.40;99.90
42617;DHT22;28250;52.320;0.360;2023-04-24T02:08:24;6.30;99.90
42617;DHT22;28250;52.320;0.360;2023-04-24T02:10:50;6.40;99.90
42617;DHT22;28250;52.320;0.360;2023-04-24T02:13:16;6.30;99.90
42617;DHT22;28250;52.320;0.360;2023-04-24T02:15:42;6.30;99.90
42617;DHT22;28250;52.320;0.360;2023-04-24T02:18:08;6.30;99.90
42617;DHT22;28250;52.320;0.360;2023-04-24T02:20:34;6.30;99.90
42617;DHT22;28250;52.320;0.360;2023-04-24T02:23:01;6.20;99.90
42617;DHT22;28250;52.320;0.360;2023-04-24T02:25:27;6.20;99.90
42617;DHT22;28250;52.320;0.360;2023-04-24T02:27:54;6.20;99.90
42617;DHT22;28250;52.320;0.360;2023-04-24T02:30:20;6.10;99.90
42617;DHT22;28250;52.320;0.360;2023-04-24T02:32:46;6.10;99.90
42617;DHT22;28250;52.320;0.360;2023-04-24T02:35:13;6.10;99.90
42617;DHT22;28250;52.320;0.360;2023-04-24T02:37:39;6.00;99.90
42617;DHT22;28250;52.320;0.360;2023-04-24T02:40:05;6.00;99.90
42617;DHT22;28250;52.320;0.360;2023-04-24T02:42:36;6.00;99.90
42617;DHT22;28250;52.320;0.360;2023-04-24T02:45:02;5.90;99.90
42617;DHT22;28250;52.320;0.360;2023-04-24T02:47:29;5.90;99.90
42617;DHT22;28250;52.320;0.360;2023-04-24T02:49:55;5.90;99.90
42617;DHT22;28250;52.320;0.360;2023-04-24T02:52:21;5.90;99.90
42617;DHT22;28250;52.320;0.360;2023-04-24T02:54:47;5.80;99.90
42617;DHT22;28250;52.320;0.360;2023-04-24T02:57:13;5.80;99.90
42617;DHT22;28250;52.320;0.360;2023-04-24T02:59:41;5.90;99.90
42617;DHT22;28250;52.320;0.360;2023-04-24T03:02:07;5.80;99.90
42617;DHT22;28250;52.320;0.360;2023-04-24T03:04:33;5.80;99.90
42617;DHT22;28250;52.320;0.360;2023-04-24T03:06:59;5.80;99.90
42617;DHT22;28250;52.320;0.360;2023-04-24T03:09:26;5.70;99.90
42617;DHT22;28250;52.320;0.360;2023-04-24T03:11:52;5.70;99.90
42617;DHT22;28250;52.320;0.360;2023-04-24T03:14:19;5.60;99.90
42617;DHT22;28250;52.320;0.360;2023-04-24T03:16:45;5.60;99.90
42617;DHT22;28250;52.320;0.360;2023-04-24T03:19:11;5.60;99.90
42617;DHT22;28250;52.320;0.360;2023-04-24T03:21:45;5.60;99.90
42617;DHT22;28250;52.320;0.360;2023-04-24T03:24:12;5.60;99.90
42617;DHT22;28250;52.320;0.360;2023-04-24T03:26:38;5.50;99.90
42617;DHT22;28250;52.320;0.360;2023-04-24T03:29:16;5.60;99.90
42617;DHT22;28250;52.320;0.360;2023-04-24T03:31:43;5.50;99.90
42617;DHT22;28250;52.320;0.360;2023-04-24T03:34:09;5.50;99.90
42617;DHT22;28250;52.320;0.360;2023-04-24T03:36:36;5.50;99.90
42617;DHT22;28250;52.320;0.360;2023-04-24T03:39:03;5.40;99.90
42617;DHT22;28250;52.320;0.360;2023-04-24T03:41:32;5.50;99.90
42617;DHT22;28250;52.320;0.360;2023-04-24T03:44:21;5.50;99.90
42617;DHT22;28250;52.320;0.360;2023-04-24T03:46:47;5.50;99.90
42617;DHT22;28250;52.320;0.360;2023-04-24T03:49:13;5.40;99.90
42617;DHT22;28250;52.320;0.360;2023-04-24T03:51:43;5.50;99.90
42617;DHT22;28250;52.320;0.360;2023-04-24T03:54:23;5.40;99.90
42617;DHT22;28250;52.320;0.360;2023-04-24T03:56:50;5.40;99.90
42617;DHT22;28250;52.320;0.360;2023-04-24T03:59:17;5.40;99.90
42617;DHT22;28250;52.320;0.360;2023-04-24T04:01:48;5.40;99.90
42617;DHT22;28250;52.320;0.360;2023-04-24T04:04:16;5.30;99.90
42617;DHT22;28250;52.320;0.360;2023-04-24T04:06:43;5.30;99.90
42617;DHT22;28250;52.320;0.360;2023-04-24T04:09:17;5.30;99.90
42617;DHT22;28250;52.320;0.360;2023-04-24T04:11:45;5.30;99.90
42617;DHT22;28250;52.320;0.360;2023-04-24T04:14:11;5.20;99.90
42617;DHT22;28250;52.320;0.360;2023-04-24T04:16:40;5.20;99.90
42617;DHT22;28250;52.320;0.360;2023-04-24T04:19:07;5.20;99.90
42617;DHT22;28250;52.320;0.360;2023-04-24T04:21:34;5.10;99.90
42617;DHT22;28250;52.320;0.360;2023-04-24T04:24:09;5.20;99.90
42617;DHT22;28250;52.320;0.360;2023-04-24T04:26:42;5.20;99.90
42617;DHT22;28250;52.320;0.360;2023-04-24T04:29:13;5.10;99.90
42617;DHT22;28250;52.320;0.360;2023-04-24T04:31:42;5.10;99.90
42617;DHT22;28250;52.320;0.360;2023-04-24T04:34:12;5.10;99.90
42617;DHT22;28250;52.320;0.360;2023-04-24T04:36:40;5.00;99.90
42617;DHT22;28250;52.320;0.360;2023-04-24T04:39:21;5.00;99.90
42617;DHT22;28250;52.320;0.360;2023-04-24T04:42:00;5.10;99.90
42617;DHT22;28250;52.320;0.360;2023-04-24T04:44:32;4.90;99.90
42617;DHT22;28250;52.320;0.360;2023-04-24T04:47:00;4.90;99.90
42617;DHT22;28250;52.320;0.360;2023-04-24T04:49:29;4.90;99.90
42617;DHT22;28250;52.320;0.360;2023-04-24T04:51:56;4.80;99.90
42617;DHT22;28250;52.320;0.360;2023-04-24T04:54:25;4.90;99.90
42617;DHT22;28250;52.320;0.360;2023-04-24T04:56:51;4.90;99.90
42617;DHT22;28250;52.320;0.360;2023-04-24T04:59:17;4.90;99.90
42617;DHT22;28250;52.320;0.360;2023-04-24T05:01:43;4.90;99.90
42617;DHT22;28250;52.320;0.360;2023-04-24T05:04:12;4.90;99.90
42617;DHT22;28250;52.320;0.360;2023-04-24T05:06:38;5.00;99.90
42617;DHT22;28250;52.320;0.360;2023-04-24T05:09:05;5.00;99.90
42617;DHT22;28250;52.320;0.360;2023-04-24T05:11:43;5.00;99.90
42617;DHT22;28250;52.320;0.360;2023-04-24T05:14:10;5.10;99.90
42617;DHT22;28250;52.320;0.360;2023-04-24T05:16:39;5.10;99.90
42617;DHT22;28250;52.320;0.360;2023-04-24T05:19:07;5.10;99.90
42617;DHT22;28250;52.320;0.360;2023-04-24T05:21:37;5.20;99.90
42617;DHT22;28250;52.320;0.360;2023-04-24T05:24:05;5.10;99.90
42617;DHT22;28250;52.320;0.360;2023-04-24T05:26:52;5.10;99.90
42617;DHT22;28250;52.320;0.360;2023-04-24T05:29:26;5.10;99.90
42617;DHT22;28250;52.320;0.360;2023-04-24T05:31:53;5.00;99.90
42617;DHT22;28250;52.320;0.360;2023-04-24T05:34:19;5.00;99.90
42617;DHT22;28250;52.320;0.360;2023-04-24T05:36:49;5.00;99.90
42617;DHT22;28250;52.320;0.360;2023-04-24T05:39:16;5.00;99.90
42617;DHT22;28250;52.320;0.360;2023-04-24T05:41:42;5.00;99.90
42617;DHT22;28250;52.320;0.360;2023-04-24T05:44:09;5.00;99.90
42617;DHT22;28250;52.320;0.360;2023-04-24T05:46:35;5.00;99.90
42617;DHT22;28250;52.320;0.360;2023-04-24T05:49:01;4.90;99.90
42617;DHT22;28250;52.320;0.360;2023-04-24T05:51:28;4.90;99.90
42617;DHT22;28250;52.320;0.360;2023-04-24T05:53:54;4.90;99.90
42617;DHT22;28250;52.320;0.360;2023-04-24T05:56:20;4.80;99.90
42617;DHT22;28250;52.320;0.360;2023-04-24T05:58:48;4.80;99.90
42617;DHT22;28250;52.320;0.360;2023-04-24T06:01:14;4.90;99.90
42617;DHT22;28250;52.320;0.360;2023-04-24T06:03:41;4.80;99.90
42617;DHT22;28250;52.320;0.360;2023-04-24T06:06:08;5.00;99.90
42617;DHT22;28250;52.320;0.360;2023-04-24T06:08:35;4.90;99.90
42617;DHT22;28250;52.320;0.360;2023-04-24T06:11:01;4.90;99.90
42617;DHT22;28250;52.320;0.360;2023-04-24T06:13:28;4.90;99.90
42617;DHT22;28250;52.320;0.360;2023-04-24T06:16:20;5.00;99.90
42617;DHT22;28250;52.320;0.360;2023-04-24T06:18:53;5.20;99.90
42617;DHT22;28250;52.320;0.360;2023-04-24T06:21:19;5.40;99.90
42617;DHT22;28250;52.320;0.360;2023-04-24T06:23:46;5.40;99.90
42617;DHT22;28250;52.320;0.360;2023-04-24T06:26:14;5.50;99.90
42617;DHT22;28250;52.320;0.360;2023-04-24T06:28:40;6.60;99.90
42617;DHT22;28250;52.320;0.360;2023-04-24T06:31:06;7.50;99.90
42617;DHT22;28250;52.320;0.360;2023-04-24T06:33:32;7.70;99.90
42617;DHT22;28250;52.320;0.360;2023-04-24T06:35:58;8.40;99.90
42617;DHT22;28250;52.320;0.360;2023-04-24T06:38:24;8.60;99.90
42617;DHT22;28250;52.320;0.360;2023-04-24T06:40:51;9.10;99.90
42617;DHT22;28250;52.320;0.360;2023-04-24T06:43:17;9.30;99.90
42617;DHT22;28250;52.320;0.360;2023-04-24T06:45:43;9.40;99.90
42617;DHT22;28250;52.320;0.360;2023-04-24T06:48:10;9.50;99.90
42617;DHT22;28250;52.320;0.360;2023-04-24T06:50:36;9.10;99.90
42617;DHT22;28250;52.320;0.360;2023-04-24T06:53:02;9.70;99.90
42617;DHT22;28250;52.320;0.360;2023-04-24T06:55:28;9.90;99.90
42617;DHT22;28250;52.320;0.360;2023-04-24T06:57:54;9.70;99.90
42617;DHT22;28250;52.320;0.360;2023-04-24T07:00:20;9.60;99.90
42617;DHT22;28250;52.320;0.360;2023-04-24T07:02:46;9.40;99.90
42617;DHT22;28250;52.320;0.360;2023-04-24T07:05:12;9.70;99.90
42617;DHT22;28250;52.320;0.360;2023-04-24T07:07:38;10.00;99.90
42617;DHT22;28250;52.320;0.360;2023-04-24T07:10:06;9.70;99.90
42617;DHT22;28250;52.320;0.360;2023-04-24T07:12:34;9.70;99.90
42617;DHT22;28250;52.320;0.360;2023-04-24T07:15:01;9.00;99.90
42617;DHT22;28250;52.320;0.360;2023-04-24T07:17:27;8.40;99.90
42617;DHT22;28250;52.320;0.360;2023-04-24T07:19:53;8.30;99.90
42617;DHT22;28250;52.320;0.360;2023-04-24T07:22:19;8.70;99.90
42617;DHT22;28250;52.320;0.360;2023-04-24T07:24:45;9.10;99.90
42617;DHT22;28250;52.320;0.360;2023-04-24T07:27:11;9.30;99.90
42617;DHT22;28250;52.320;0.360;2023-04-24T07:29:37;9.50;99.90
42617;DHT22;28250;52.320;0.360;2023-04-24T07:32:03;9.20;99.90
42617;DHT22;28250;52.320;0.360;2023-04-24T07:34:29;9.30;99.90
42617;DHT22;28250;52.320;0.360;2023-04-24T07:36:55;9.40;99.90
42617;DHT22;28250;52.320;0.360;2023-04-24T07:39:22;9.20;99.90
42617;DHT22;28250;52.320;0.360;2023-04-24T07:41:48;8.90;99.90
42617;DHT22;28250;52.320;0.360;2023-04-24T07:44:14;8.80;99.90
42617;DHT22;28250;52.320;0.360;2023-04-24T07:46:40;8.70;99.90
42617;DHT22;28250;52.320;0.360;2023-04-24T07:49:06;8.50;99.90
42617;DHT22;28250;52.320;0.360;2023-04-24T07:51:33;8.50;99.90
42617;DHT22;28250;52.320;0.360;2023-04-24T07:54:04;8.60;99.90
42617;DHT22;28250;52.320;0.360;2023-04-24T07:56:34;8.70;99.90
42617;DHT22;28250;52.320;0.360;2023-04-24T07:59:01;8.70;99.90
42617;DHT22;28250;52.320;0.360;2023-04-24T08:01:27;8.80;99.90
42617;DHT22;28250;52.320;0.360;2023-04-24T08:03:53;8.90;99.90
42617;DHT22;28250;52.320;0.360;2023-04-24T08:06:19;9.00;99.90
42617;DHT22;28250;52.320;0.360;2023-04-24T08:08:45;8.90;99.90
42617;DHT22;28250;52.320;0.360;2023-04-24T08:11:11;8.90;99.90
42617;DHT22;28250;52.320;0.360;2023-04-24T08:13:37;9.10;99.90
42617;DHT22;28250;52.320;0.360;2023-04-24T08:16:03;9.20;99.90
42617;DHT22;28250;52.320;0.360;2023-04-24T08:18:29;9.50;99.90
42617;DHT22;28250;52.320;0.360;2023-04-24T08:20:56;9.10;99.90
42617;DHT22;28250;52.320;0.360;2023-04-24T08:23:27;9.20;99.90
42617;DHT22;28250;52.320;0.360;2023-04-24T08:25:54;9.80;99.90
42617;DHT22;28250;52.320;0.360;2023-04-24T08:28:20;10.10;99.90
42617;DHT22;28250;52.320;0.360;2023-04-24T08:30:47;10.20;99.90
42617;DHT22;28250;52.320;0.360;2023-04-24T08:33:14;9.70;99.90
42617;DHT22;28250;52.320;0.360;2023-04-24T08:35:40;9.70;99.90
42617;DHT22;28250;52.320;0.360;2023-04-24T08:38:06;9.90;99.90
42617;DHT22;28250;52.320;0.360;2023-04-24T08:40:34;9.70;99.90
42617;DHT22;28250;52.320;0.360;2023-04-24T08:43:00;9.70;99.90
42617;DHT22;28250;52.320;0.360;2023-04-24T08:45:26;10.00;99.90
42617;DHT22;28250;52.320;0.360;2023-04-24T08:47:53;9.90;99.90
42617;DHT22;28250;52.320;0.360;2023-04-24T08:50:22;10.30;99.90
42617;DHT22;28250;52.320;0.360;2023-04-24T08:52:52;10.00;99.90
42617;DHT22;28250;52.320;0.360;2023-04-24T08:55:20;10.30;99.90
42617;DHT22;28250;52.320;0.360;2023-04-24T08:57:51;10.20;99.90
42617;DHT22;28250;52.320;0.360;2023-04-24T09:00:22;10.20;99.90
42617;DHT22;28250;52.320;0.360;2023-04-24T09:02:52;10.50;99.90
42617;DHT22;28250;52.320;0.360;2023-04-24T09:05:21;10.60;99.90
42617;DHT22;28250;52.320;0.360;2023-04-24T09:07:54;11.00;99.90
42617;DHT22;28250;52.320;0.360;2023-04-24T09:10:23;10.90;99.90
42617;DHT22;28250;52.320;0.360;2023-04-24T09:12:52;10.80;99.90
42617;DHT22;28250;52.320;0.360;2023-04-24T09:15:19;10.40;99.90
42617;DHT22;28250;52.320;0.360;2023-04-24T09:17:46;10.60;99.90
42617;DHT22;28250;52.320;0.360;2023-04-24T09:20:12;10.50;99.90
42617;DHT22;28250;52.320;0.360;2023-04-24T09:22:38;10.50;99.90
42617;DHT22;28250;52.320;0.360;2023-04-24T09:25:08;10.60;99.90
42617;DHT22;28250;52.320;0.360;2023-04-24T09:27:41;10.60;99.90
42617;DHT22;28250;52.320;0.360;2023-04-24T09:30:10;10.30;99.90
42617;DHT22;28250;52.320;0.360;2023-04-24T09:32:36;10.30;99.90
42617;DHT22;28250;52.320;0.360;2023-04-24T09:35:14;10.20;99.90
42617;DHT22;28250;52.320;0.360;2023-04-24T09:37:42;10.30;99.90
42617;DHT22;28250;52.320;0.360;2023-04-24T09:40:22;10.50;99.90
42617;DHT22;28250;52.320;0.360;2023-04-24T09:42:56;10.30;99.90
42617;DHT22;28250;52.320;0.360;2023-04-24T09:45:35;10.10;99.90
42617;DHT22;28250;52.320;0.360;2023-04-24T09:48:02;10.00;99.90
42617;DHT22;28250;52.320;0.360;2023-04-24T09:50:30;10.40;99.90
42617;DHT22;28250;52.320;0.360;2023-04-24T09:53:05;10.30;99.90
42617;DHT22;28250;52.320;0.360;2023-04-24T09:55:39;10.40;99.90
42617;DHT22;28250;52.320;0.360;2023-04-24T09:58:08;10.40;99.90
42617;DHT22;28250;52.320;0.360;2023-04-24T10:00:34;10.70;99.90
42617;DHT22;28250;52.320;0.360;2023-04-24T10:03:02;11.10;99.90
42617;DHT22;28250;52.320;0.360;2023-04-24T10:05:29;11.30;99.90
42617;DHT22;28250;52.320;0.360;2023-04-24T10:08:10;11.30;99.90
42617;DHT22;28250;52.320;0.360;2023-04-24T10:10:44;11.70;99.90
42617;DHT22;28250;52.320;0.360;2023-04-24T10:13:12;12.30;99.90
42617;DHT22;28250;52.320;0.360;2023-04-24T10:15:41;12.00;99.90
42617;DHT22;28250;52.320;0.360;2023-04-24T10:18:08;12.20;99.90
42617;DHT22;28250;52.320;0.360;2023-04-24T10:20:37;13.00;99.90
42617;DHT22;28250;52.320;0.360;2023-04-24T10:23:05;12.70;99.90
42617;DHT22;28250;52.320;0.360;2023-04-24T10:25:36;12.40;99.90
42617;DHT22;28250;52.320;0.360;2023-04-24T10:28:03;12.20;99.90
42617;DHT22;28250;52.320;0.360;2023-04-24T10:30:31;11.90;99.90
42617;DHT22;28250;52.320;0.360;2023-04-24T10:33:05;12.50;99.90
42617;DHT22;28250;52.320;0.360;2023-04-24T10:35:36;12.30;99.90
42617;DHT22;28250;52.320;0.360;2023-04-24T10:38:11;12.30;99.90
42617;DHT22;28250;52.320;0.360;2023-04-24T10:40:38;12.00;99.90
42617;DHT22;28250;52.320;0.360;2023-04-24T10:43:05;12.80;99.90
42617;DHT22;28250;52.320;0.360;2023-04-24T10:45:34;13.30;99.90
42617;DHT22;28250;52.320;0.360;2023-04-24T10:48:05;13.50;99.90
42617;DHT22;28250;52.320;0.360;2023-04-24T10:53:19;12.40;99.90
42617;DHT22;28250;52.320;0.360;2023-04-24T10:56:05;12.00;99.90
42617;DHT22;28250;52.320;0.360;2023-04-24T10:58:43;11.50;99.90
42617;DHT22;28250;52.320;0.360;2023-04-24T11:01:27;11.80;99.90
42617;DHT22;28250;52.320;0.360;2023-04-24T11:03:56;12.30;99.90
42617;DHT22;28250;52.320;0.360;2023-04-24T11:06:34;12.20;99.90
42617;DHT22;28250;52.320;0.360;2023-04-24T11:09:07;12.40;99.90
42617;DHT22;28250;52.320;0.360;2023-04-24T11:11:34;13.60;99.90
42617;DHT22;28250;52.320;0.360;2023-04-24T11:14:04;14.20;99.90
42617;DHT22;28250;52.320;0.360;2023-04-24T11:16:42;14.30;99.90
42617;DHT22;28250;52.320;0.360;2023-04-24T11:24:32;13.30;99.90
42617;DHT22;28250;52.320;0.360;2023-04-24T11:27:21;13.30;99.90
42617;DHT22;28250;52.320;0.360;2023-04-24T11:32:30;13.50;99.90
42617;DHT22;28250;52.320;0.360;2023-04-24T11:37:39;13.10;99.90
42617;DHT22;28250;52.320;0.360;2023-04-24T11:40:13;13.00;99.90
42617;DHT22;28250;52.320;0.360;2023-04-24T11:42:43;12.70;99.90
42617;DHT22;28250;52.320;0.360;2023-04-24T11:45:14;12.30;99.90
42617;DHT22;28250;52.320;0.360;2023-04-24T11:47:42;12.60;99.90
42617;DHT22;28250;52.320;0.360;2023-04-24T11:50:17;12.40;99.90
42617;DHT22;28250;52.320;0.360;2023-04-24T11:52:46;12.60;99.90
42617;DHT22;28250;52.320;0.360;2023-04-24T11:57:45;14.90;99.90
42617;DHT22;28250;52.320;0.360;2023-04-24T12:00:18;14.30;99.90
42617;DHT22;28250;52.320;0.360;2023-04-24T12:02:49;13.90;99.90
42617;DHT22;28250;52.320;0.360;2023-04-24T12:05:26;13.10;99.90
42617;DHT22;28250;52.320;0.360;2023-04-24T12:07:53;13.90;99.90
42617;DHT22;28250;52.320;0.360;2023-04-24T12:10:24;14.20;99.90
42617;DHT22;28250;52.320;0.360;2023-04-24T12:12:52;13.90;99.90
42617;DHT22;28250;52.320;0.360;2023-04-24T12:15:20;14.00;99.90
42617;DHT22;28250;52.320;0.360;2023-04-24T12:17:47;13.70;99.90
42617;DHT22;28250;52.320;0.360;2023-04-24T12:20:14;13.90;99.90
42617;DHT22;28250;52.320;0.360;2023-04-24T12:22:57;13.70;99.90
42617;DHT22;28250;52.320;0.360;2023-04-24T12:25:32;13.90;99.90
42617;DHT22;28250;52.320;0.360;2023-04-24T12:30:32;13.60;99.90
42617;DHT22;28250;52.320;0.360;2023-04-24T12:33:00;14.10;99.90
42617;DHT22;28250;52.320;0.360;2023-04-24T12:35:32;14.20;99.90
42617;DHT22;28250;52.320;0.360;2023-04-24T12:38:06;13.80;99.90
42617;DHT22;28250;52.320;0.360;2023-04-24T12:40:36;13.50;99.90
42617;DHT22;28250;52.320;0.360;2023-04-24T12:43:12;13.30;99.90
42617;DHT22;28250;52.320;0.360;2023-04-24T12:45:45;13.30;99.90
42617;DHT22;28250;52.320;0.360;2023-04-24T12:48:13;13.60;99.90
42617;DHT22;28250;52.320;0.360;2023-04-24T12:50:42;13.60;99.90
42617;DHT22;28250;52.320;0.360;2023-04-24T12:53:09;13.80;99.90
42617;DHT22;28250;52.320;0.360;2023-04-24T12:55:36;13.70;99.90
42617;DHT22;28250;52.320;0.360;2023-04-24T12:58:02;14.10;99.90
42617;DHT22;28250;52.320;0.360;2023-04-24T13:00:29;13.70;99.90
42617;DHT22;28250;52.320;0.360;2023-04-24T13:02:55;13.60;99.90
42617;DHT22;28250;52.320;0.360;2023-04-24T13:05:21;13.50;99.90
42617;DHT22;28250;52.320;0.360;2023-04-24T13:07:47;13.40;99.90
42617;DHT22;28250;52.320;0.360;2023-04-24T13:10:13;14.00;99.90
42617;DHT22;28250;52.320;0.360;2023-04-24T13:12:39;13.70;99.90
42617;DHT22;28250;52.320;0.360;2023-04-24T13:15:06;13.20;99.90
42617;DHT22;28250;52.320;0.360;2023-04-24T13:17:33;13.60;99.90
42617;DHT22;28250;52.320;0.360;2023-04-24T13:19:59;14.20;99.90
42617;DHT22;28250;52.320;0.360;2023-04-24T13:22:25;14.30;99.90
42617;DHT22;28250;52.320;0.360;2023-04-24T13:24:51;13.80;99.90
42617;DHT22;28250;52.320;0.360;2023-04-24T13:27:17;13.80;99.90
42617;DHT22;28250;52.320;0.360;2023-04-24T13:29:44;14.10;99.90
42617;DHT22;28250;52.320;0.360;2023-04-24T13:32:10;13.80;99.90
42617;DHT22;28250;52.320;0.360;2023-04-24T13:34:36;13.60;99.90
42617;DHT22;28250;52.320;0.360;2023-04-24T13:37:03;14.00;99.90
42617;DHT22;28250;52.320;0.360;2023-04-24T13:39:29;13.80;99.90
42617;DHT22;28250;52.320;0.360;2023-04-24T13:41:55;13.70;99.90
42617;DHT22;28250;52.320;0.360;2023-04-24T13:44:22;13.20;99.90
42617;DHT22;28250;52.320;0.360;2023-04-24T13:46:51;13.00;99.90
42617;DHT22;28250;52.320;0.360;2023-04-24T13:49:20;12.90;99.90
42617;DHT22;28250;52.320;0.360;2023-04-24T13:51:47;13.40;99.90
42617;DHT22;28250;52.320;0.360;2023-04-24T13:54:14;12.90;99.90
42617;DHT22;28250;52.320;0.360;2023-04-24T13:56:40;13.00;99.90
42617;DHT22;28250;52.320;0.360;2023-04-24T13:59:06;12.60;99.90
42617;DHT22;28250;52.320;0.360;2023-04-24T14:01:32;12.70;99.90
42617;DHT22;28250;52.320;0.360;2023-04-24T14:03:58;12.80;99.90
42617;DHT22;28250;52.320;0.360;2023-04-24T14:06:25;13.20;99.90
42617;DHT22;28250;52.320;0.360;2023-04-24T14:08:51;13.50;99.90
42617;DHT22;28250;52.320;0.360;2023-04-24T14:11:18;13.50;99.90
42617;DHT22;28250;52.320;0.360;2023-04-24T14:13:45;13.60;99.90
42617;DHT22;28250;52.320;0.360;2023-04-24T14:16:12;13.50;99.90
42617;DHT22;28250;52.320;0.360;2023-04-24T14:18:38;13.40;99.90
42617;DHT22;28250;52.320;0.360;2023-04-24T14:21:04;13.50;99.90
42617;DHT22;28250;52.320;0.360;2023-04-24T14:23:31;13.20;99.90
42617;DHT22;28250;52.320;0.360;2023-04-24T14:25:58;12.90;99.90
42617;DHT22;28250;52.320;0.360;2023-04-24T14:28:24;12.80;99.90
42617;DHT22;28250;52.320;0.360;2023-04-24T14:30:52;12.60;99.90
42617;DHT22;28250;52.320;0.360;2023-04-24T14:33:18;12.30;99.90
42617;DHT22;28250;52.320;0.360;2023-04-24T14:35:44;12.20;99.90
42617;DHT22;28250;52.320;0.360;2023-04-24T14:38:10;12.30;99.90
42617;DHT22;28250;52.320;0.360;2023-04-24T14:40:37;12.30;99.90
42617;DHT22;28250;52.320;0.360;2023-04-24T14:43:03;12.20;99.90
42617;DHT22;28250;52.320;0.360;2023-04-24T14:45:30;12.40;99.90
42617;DHT22;28250;52.320;0.360;2023-04-24T14:47:57;12.40;99.90
42617;DHT22;28250;52.320;0.360;2023-04-24T14:50:23;12.20;99.90
42617;DHT22;28250;52.320;0.360;2023-04-24T14:52:53;12.40;99.90
42617;DHT22;28250;52.320;0.360;2023-04-24T14:55:23;12.10;99.90
42617;DHT22;28250;52.320;0.360;2023-04-24T14:57:49;12.30;99.90
42617;DHT22;28250;52.320;0.360;2023-04-24T15:00:15;12.50;99.90
42617;DHT22;28250;52.320;0.360;2023-04-24T15:02:42;12.50;99.90
42617;DHT22;28250;52.320;0.360;2023-04-24T15:05:10;12.00;99.90
42617;DHT22;28250;52.320;0.360;2023-04-24T15:07:39;12.10;99.90
42617;DHT22;28250;52.320;0.360;2023-04-24T15:10:07;11.80;99.90
42617;DHT22;28250;52.320;0.360;2023-04-24T15:12:34;11.20;99.90
42617;DHT22;28250;52.320;0.360;2023-04-24T15:15:00;11.10;99.90
42617;DHT22;28250;52.320;0.360;2023-04-24T15:17:26;10.90;99.90
42617;DHT22;28250;52.320;0.360;2023-04-24T15:19:53;11.10;99.90
42617;DHT22;28250;52.320;0.360;2023-04-24T15:22:19;10.90;99.90
42617;DHT22;28250;52.320;0.360;2023-04-24T15:24:45;10.90;99.90
42617;DHT22;28250;52.320;0.360;2023-04-24T15:27:11;10.80;99.90
42617;DHT22;28250;52.320;0.360;2023-04-24T15:29:37;11.00;99.90
42617;DHT22;28250;52.320;0.360;2023-04-24T15:32:03;10.80;99.90
42617;DHT22;28250;52.320;0.360;2023-04-24T15:34:29;10.60;99.90
42617;DHT22;28250;52.320;0.360;2023-04-24T15:36:58;10.50;99.90
42617;DHT22;28250;52.320;0.360;2023-04-24T15:39:25;10.50;99.90
42617;DHT22;28250;52.320;0.360;2023-04-24T15:41:51;10.50;99.90
42617;DHT22;28250;52.320;0.360;2023-04-24T15:44:18;10.50;99.90
42617;DHT22;28250;52.320;0.360;2023-04-24T15:46:45;10.50;99.90
42617;DHT22;28250;52.320;0.360;2023-04-24T15:49:11;10.40;99.90
42617;DHT22;28250;52.320;0.360;2023-04-24T15:51:37;10.60;99.90
42617;DHT22;28250;52.320;0.360;2023-04-24T15:54:03;10.60;99.90
42617;DHT22;28250;52.320;0.360;2023-04-24T15:56:29;10.60;99.90
42617;DHT22;28250;52.320;0.360;2023-04-24T15:58:55;10.50;99.90
42617;DHT22;28250;52.320;0.360;2023-04-24T16:01:21;10.50;99.90
42617;DHT22;28250;52.320;0.360;2023-04-24T16:03:48;10.60;99.90